Salina, KS (67401)

4:37 AM CST on December 07, 2016 (GMT -0600)
Central Salina | | Change Station

Elev 1243 ft 38.82 °N, 97.62 °W | Updated 10 seconds ago

Scattered Clouds
Scattered Clouds
26.2 °F
Feels Like 26 °F
N
0.0
Wind Variable Wind from East
Gusts 2.2 mph

Today
High -- | Low -- °F
--% Chance of Precip.
Yesterday
High -- | Low -- °F
Precip. -- in
Pressure 30.19 in
Visibility 10.0 miles
Clouds Scattered Clouds 8500 ft
Windchill 26 °F
Dew Point 15 °F
Humidity 63%
Rainfall 0.00 in
Snow Depth Not available.
7:35 AM 5:08 PM
Waxing Crescent, 51% visible
METAR KSLN 070953Z AUTO 07005KT 10SM SCT085 M02/M09 A3016 RMK AO2 SLP222 T10171094
Pressure 30.19 in
Visibility 10.0 miles
Clouds Scattered Clouds 8500 ft
Windchill 26 °F
Dew Point 15 °F
Humidity 63%
Rainfall 0.00 in
Snow Depth Not available.
7:35 AM 5:08 PM
Waxing Crescent, 51% visible
METAR KSLN 070953Z AUTO 07005KT 10SM SCT085 M02/M09 A3016 RMK AO2 SLP222 T10171094

10-Day Weather Forecast

Almanac

Astronomy

Dec. 07, 2016 Rise Set
Actual Time
Civil Twilight
Nautical Twilight
Astronomical Twilight
Moon
Length of Visible Light
Length of Day
Tomorrow will be .
, % of the Moon is Illuminated

Today's Extremes

State Highs State Lows

Community

WunderPhotos

Upload Photos

1,956,111 photos uploaded!

WunderBlog® & News

Nearby

Air Quality

  Air Quality AQ Index Pollutant
Not available.

Snow Depth

Station Depth Elevation

Earthquake Activity

City Distance Mag. Time & Date
Minimum magnitude displayed is 2.5.

Coastal Water Temperatures

Place Temperature

Stations

Nearby Weather Stations

Station Location Temp. Windchill Dew Point Humidity Wind Precip. Elev Updated Type
                   

Watches & Warnings

There are currently no watches in effect.